Time;durP1;ratioP1;P1;durP2;ratioP2;P2;SDS_P1;SDS_P2;PMS_P1;PMS_P2;Temp;Humidity;BMP_temperature;BMP_pressure;BME280_temperature;BME280_humidity;BME280_pressure;Samples;Min_cycle;Max_cycle;Signal;HPM_P1;HPM_P2
2022/01/11 00:01:43;;;;;;;47.92;14.88;;;;;;;;;;4989768;28;20022;-66
2022/01/11 00:04:09;;;;;;;32.65;10.00;;;;;;;;;;4990396;28;20018;-66
2022/01/11 00:06:47;;;;;;;35.25;12.35;;;;;;;;;;4990348;28;20035;-66
2022/01/11 00:11:57;;;;;;;50.60;15.90;;;;;;;;;;4989254;28;20418;-66
2022/01/11 00:14:22;;;;;;;30.92;12.77;;;;;;;;;;4990023;28;20038;-65
2022/01/11 00:16:48;;;;;;;36.70;12.60;;;;;;;;;;4990412;28;20537;-65
2022/01/11 00:19:14;;;;;;;44.53;15.65;;;;;;;;;;4989491;28;20027;-65
2022/01/11 00:21:45;;;;;;;32.30;10.13;;;;;;;;;;4990134;28;20499;-66
2022/01/11 00:27:02;;;;;;;54.50;15.98;;;;;;;;;;4992156;28;20037;-65
2022/01/11 00:29:28;;;;;;;12.68;5.97;;;;;;;;;;4993354;28;20031;-65
2022/01/11 00:31:55;;;;;;;23.23;7.35;;;;;;;;;;4993845;28;20406;-65
2022/01/11 00:34:22;;;;;;;32.92;11.38;;;;;;;;;;4993418;28;20077;-66
2022/01/11 00:36:48;;;;;;;22.67;8.40;;;;;;;;;;4993885;28;20106;-65
2022/01/11 00:39:13;;;;;;;26.98;11.35;;;;;;;;;;4993479;28;20105;-66
2022/01/11 00:41:41;;;;;;;21.58;8.90;;;;;;;;;;4993320;28;20038;-65
2022/01/11 00:44:07;;;;;;;18.23;8.45;;;;;;;;;;4977680;28;20061;-65
2022/01/11 00:46:33;;;;;;;26.67;7.00;;;;;;;;;;4993144;28;20479;-66
2022/01/11 00:48:58;;;;;;;14.32;5.50;;;;;;;;;;4993077;28;20022;-66
2022/01/11 00:51:23;;;;;;;27.27;8.30;;;;;;;;;;4992246;28;20031;-65
2022/01/11 00:53:48;;;;;;;22.75;9.63;;;;;;;;;;4993148;28;20018;-66
2022/01/11 00:56:13;;;;;;;49.55;13.95;;;;;;;;;;4993150;28;20022;-65
2022/01/11 00:58:39;;;;;;;32.47;11.48;;;;;;;;;;4992925;28;20069;-66
2022/01/11 01:01:04;;;;;;;22.02;9.35;;;;;;;;;;4992575;28;20359;-66
2022/01/11 01:03:29;;;;;;;26.88;10.30;;;;;;;;;;4993370;28;20021;-66
2022/01/11 01:05:54;;;;;;;35.42;14.00;;;;;;;;;;4992537;28;20050;-65
2022/01/11 01:08:20;;;;;;;25.08;11.88;;;;;;;;;;4991242;28;20025;-65
2022/01/11 01:10:46;;;;;;;39.33;12.60;;;;;;;;;;4986761;28;20022;-66
2022/01/11 01:13:14;;;;;;;66.68;18.35;;;;;;;;;;4983942;28;20014;-66
2022/01/11 01:15:39;;;;;;;64.25;21.10;;;;;;;;;;4993299;28;20376;-65
2022/01/11 01:18:05;;;;;;;12.95;6.20;;;;;;;;;;4992610;28;20018;-67
2022/01/11 01:20:30;;;;;;;26.95;10.63;;;;;;;;;;4992263;28;20521;-66
2022/01/11 01:22:55;;;;;;;55.65;15.18;;;;;;;;;;4992900;28;20024;-65
2022/01/11 01:25:23;;;;;;;19.10;7.53;;;;;;;;;;4992414;28;20057;-66
2022/01/11 01:27:48;;;;;;;35.53;13.60;;;;;;;;;;4992127;28;20029;-66
2022/01/11 01:30:14;;;;;;;39.22;13.85;;;;;;;;;;4992346;28;20027;-65
2022/01/11 01:32:40;;;;;;;33.35;10.70;;;;;;;;;;4991891;28;20026;-66
2022/01/11 01:35:05;;;;;;;23.92;9.20;;;;;;;;;;4990529;28;20045;-66
2022/01/11 01:37:31;;;;;;;36.55;13.50;;;;;;;;;;4991760;28;20021;-66
2022/01/11 01:39:56;;;;;;;22.02;7.88;;;;;;;;;;4991681;28;20073;-66
2022/01/11 01:42:24;;;;;;;29.55;11.75;;;;;;;;;;4991929;28;20069;-65
2022/01/11 01:44:49;;;;;;;14.55;4.57;;;;;;;;;;4991624;28;20479;-67
2022/01/11 01:47:14;;;;;;;12.82;5.70;;;;;;;;;;4992305;28;20042;-66
2022/01/11 01:49:40;;;;;;;34.60;11.82;;;;;;;;;;4991296;28;20109;-66
2022/01/11 01:52:05;;;;;;;27.55;9.55;;;;;;;;;;4991771;28;20018;-65
2022/01/11 01:54:30;;;;;;;27.10;10.00;;;;;;;;;;4990564;28;20101;-66
2022/01/11 01:56:56;;;;;;;44.67;15.07;;;;;;;;;;4992203;28;20050;-66
2022/01/11 01:59:21;;;;;;;37.58;12.57;;;;;;;;;;4992244;28;20053;-66
2022/01/11 02:01:48;;;;;;;33.53;11.98;;;;;;;;;;4991106;28;20026;-67
2022/01/11 02:04:15;;;;;;;24.55;9.43;;;;;;;;;;4990390;28;20050;-65
2022/01/11 02:06:40;;;;;;;18.55;5.82;;;;;;;;;;4992475;28;20022;-66
2022/01/11 02:09:05;;;;;;;21.08;8.63;;;;;;;;;;4991318;28;20379;-66
2022/01/11 02:11:31;;;;;;;35.75;10.55;;;;;;;;;;4991504;28;20045;-66
2022/01/11 02:13:57;;;;;;;13.50;5.78;;;;;;;;;;4990602;28;20042;-66
2022/01/11 02:16:23;;;;;;;52.53;15.35;;;;;;;;;;4991946;28;20014;-66
2022/01/11 02:18:48;;;;;;;55.72;16.27;;;;;;;;;;4991542;28;20026;-66
2022/01/11 02:21:14;;;;;;;35.15;11.45;;;;;;;;;;4991259;28;20033;-65
2022/01/11 02:23:39;;;;;;;28.92;11.25;;;;;;;;;;4991114;28;20018;-66
2022/01/11 02:26:04;;;;;;;50.83;13.48;;;;;;;;;;5007493;28;20032;-66
2022/01/11 02:28:30;;;;;;;21.02;7.53;;;;;;;;;;5002640;28;20026;-66
2022/01/11 02:30:56;;;;;;;39.25;13.13;;;;;;;;;;4991206;28;20486;-66
2022/01/11 02:33:47;;;;;;;18.23;6.90;;;;;;;;;;4991399;28;20023;-66
2022/01/11 02:36:18;;;;;;;14.15;6.63;;;;;;;;;;4989942;28;20038;-66
2022/01/11 02:38:44;;;;;;;35.53;11.02;;;;;;;;;;4990878;28;20475;-67
2022/01/11 02:41:09;;;;;;;48.40;15.13;;;;;;;;;;4990987;28;20030;-66
2022/01/11 02:43:34;;;;;;;35.33;9.38;;;;;;;;;;4991815;28;20442;-65
2022/01/11 02:46:01;;;;;;;30.83;11.85;;;;;;;;;;4989857;28;20085;-66
2022/01/11 02:48:26;;;;;;;25.42;9.60;;;;;;;;;;4976861;28;20026;-66
2022/01/11 02:50:51;;;;;;;22.95;7.72;;;;;;;;;;4991236;28;20015;-66
2022/01/11 02:53:17;;;;;;;45.10;16.08;;;;;;;;;;4990962;28;20105;-66
2022/01/11 02:55:43;;;;;;;42.22;13.90;;;;;;;;;;4989874;28;20419;-66
2022/01/11 02:58:09;;;;;;;33.70;11.35;;;;;;;;;;4986550;28;20038;-66
2022/01/11 03:00:34;;;;;;;26.25;10.40;;;;;;;;;;4991039;28;20537;-66
2022/01/11 03:03:14;;;;;;;33.13;12.80;;;;;;;;;;4990955;28;20026;-65
2022/01/11 03:05:46;;;;;;;30.02;11.45;;;;;;;;;;4990374;28;20164;-66
2022/01/11 03:08:12;;;;;;;23.75;9.63;;;;;;;;;;4990617;28;20487;-65
2022/01/11 03:10:37;;;;;;;36.83;12.18;;;;;;;;;;4989374;28;20029;-66
2022/01/11 03:13:03;;;;;;;33.08;11.48;;;;;;;;;;4990583;28;20023;-66
2022/01/11 03:15:29;;;;;;;27.80;9.93;;;;;;;;;;5025123;23;20536;-65
2022/01/11 03:17:54;;;;;;;34.17;9.55;;;;;;;;;;5009090;28;20017;-65
2022/01/11 03:20:19;;;;;;;30.05;10.18;;;;;;;;;;5009008;28;20018;-66
2022/01/11 03:22:45;;;;;;;24.67;8.98;;;;;;;;;;5009975;28;20026;-64
2022/01/11 03:25:10;;;;;;;25.90;11.07;;;;;;;;;;5010120;28;20486;-65
2022/01/11 03:27:35;;;;;;;32.90;11.63;;;;;;;;;;5009543;28;20441;-65
2022/01/11 03:30:01;;;;;;;29.48;10.35;;;;;;;;;;5009701;28;20026;-64
2022/01/11 03:32:26;;;;;;;20.75;7.38;;;;;;;;;;5009962;28;20410;-65
2022/01/11 03:34:51;;;;;;;29.45;9.38;;;;;;;;;;5008183;28;20017;-65
2022/01/11 03:37:18;;;;;;;27.90;7.15;;;;;;;;;;5010173;28;20401;-65
2022/01/11 03:39:44;;;;;;;18.80;6.78;;;;;;;;;;5010223;28;20037;-65
2022/01/11 03:42:10;;;;;;;20.45;7.40;;;;;;;;;;5009700;28;20037;-65
2022/01/11 03:44:35;;;;;;;20.58;9.07;;;;;;;;;;5009117;28;20026;-65
2022/01/11 03:47:00;;;;;;;26.98;9.95;;;;;;;;;;5010008;28;20017;-65
2022/01/11 03:49:26;;;;;;;13.60;5.47;;;;;;;;;;5010046;28;20030;-66
2022/01/11 03:51:51;;;;;;;7.97;4.93;;;;;;;;;;5009834;28;20286;-65
2022/01/11 03:54:23;;;;;;;28.25;8.18;;;;;;;;;;5009521;28;20413;-65
2022/01/11 03:56:49;;;;;;;10.60;4.15;;;;;;;;;;5009666;28;20006;-65
2022/01/11 03:59:14;;;;;;;28.67;12.07;;;;;;;;;;5009717;28;20545;-64
2022/01/11 04:01:39;;;;;;;22.52;7.35;;;;;;;;;;5010127;28;20088;-64
2022/01/11 04:04:06;;;;;;;27.15;10.48;;;;;;;;;;5011504;28;20057;-65
2022/01/11 04:06:31;;;;;;;16.92;5.38;;;;;;;;;;5015247;28;20453;-66
2022/01/11 04:08:57;;;;;;;49.63;15.48;;;;;;;;;;5013467;28;20061;-64
2022/01/11 04:11:22;;;;;;;41.05;13.55;;;;;;;;;;5013355;28;20018;-65
2022/01/11 04:13:47;;;;;;;36.42;11.27;;;;;;;;;;5012761;28;20026;-66
2022/01/11 04:16:13;;;;;;;40.00;13.40;;;;;;;;;;5000708;28;20121;-65
2022/01/11 04:18:38;;;;;;;37.35;12.43;;;;;;;;;;5013074;28;20049;-66
2022/01/11 04:21:03;;;;;;;15.50;6.22;;;;;;;;;;5013332;28;20061;-65
2022/01/11 04:23:29;;;;;;;26.25;8.88;;;;;;;;;;5013308;28;20363;-65
2022/01/11 04:25:54;;;;;;;30.13;10.50;;;;;;;;;;5012482;28;20018;-64
2022/01/11 04:28:23;;;;;;;34.55;10.63;;;;;;;;;;5009581;28;20336;-64
2022/01/11 04:30:48;;;;;;;19.33;8.18;;;;;;;;;;5011032;28;20022;-66
2022/01/11 04:33:14;;;;;;;55.10;16.15;;;;;;;;;;5010138;28;20018;-65
2022/01/11 04:35:41;;;;;;;16.80;6.90;;;;;;;;;;5009124;28;20032;-66
2022/01/11 04:38:06;;;;;;;37.50;12.63;;;;;;;;;;5006943;28;20018;-65
2022/01/11 04:40:31;;;;;;;33.92;12.25;;;;;;;;;;5009740;28;20021;-65
2022/01/11 04:42:57;;;;;;;9.93;3.60;;;;;;;;;;5010443;28;20022;-65
2022/01/11 04:45:22;;;;;;;34.70;10.45;;;;;;;;;;5011216;28;20024;-65
2022/01/11 04:47:52;;;;;;;14.70;5.90;;;;;;;;;;5010934;28;20245;-65
2022/01/11 04:50:17;;;;;;;30.55;9.48;;;;;;;;;;5010876;28;20381;-65
2022/01/11 04:52:42;;;;;;;21.77;8.77;;;;;;;;;;5010404;28;20164;-65
2022/01/11 04:55:08;;;;;;;27.90;9.95;;;;;;;;;;5010465;28;20222;-65
2022/01/11 04:57:34;;;;;;;14.52;6.00;;;;;;;;;;5007368;28;20021;-65
2022/01/11 04:59:59;;;;;;;19.60;8.48;;;;;;;;;;5010510;28;20096;-65
2022/01/11 05:02:26;;;;;;;34.78;12.27;;;;;;;;;;5009066;28;20161;-65
2022/01/11 05:04:51;;;;;;;52.35;16.77;;;;;;;;;;5011998;28;20030;-65
2022/01/11 05:07:17;;;;;;;33.55;10.95;;;;;;;;;;5011986;28;20022;-65
2022/01/11 05:09:42;;;;;;;12.13;6.25;;;;;;;;;;5010401;28;20061;-65
2022/01/11 05:12:07;;;;;;;57.93;17.30;;;;;;;;;;5010094;28;20022;-64
2022/01/11 05:14:33;;;;;;;39.40;13.43;;;;;;;;;;5003934;28;20328;-65
2022/01/11 05:16:58;;;;;;;21.25;8.82;;;;;;;;;;5010073;28;20053;-66
2022/01/11 05:19:23;;;;;;;21.00;9.68;;;;;;;;;;5008936;28;20402;-65
2022/01/11 05:21:48;;;;;;;26.65;9.35;;;;;;;;;;5010483;28;20105;-65
2022/01/11 05:24:13;;;;;;;43.90;13.02;;;;;;;;;;5011358;28;20034;-65
2022/01/11 05:26:39;;;;;;;22.23;8.98;;;;;;;;;;5012486;28;20481;-64
2022/01/11 05:29:04;;;;;;;47.13;14.85;;;;;;;;;;5011587;28;20049;-65
2022/01/11 05:31:29;;;;;;;27.20;10.02;;;;;;;;;;5011777;28;20038;-65
2022/01/11 05:33:55;;;;;;;33.17;11.13;;;;;;;;;;5011945;28;20477;-64
2022/01/11 05:36:20;;;;;;;53.33;16.27;;;;;;;;;;5011687;28;20021;-65
2022/01/11 05:38:45;;;;;;;33.60;9.52;;;;;;;;;;5004226;28;20030;-64
2022/01/11 05:41:11;;;;;;;20.02;5.90;;;;;;;;;;5010122;28;20053;-66
2022/01/11 05:43:36;;;;;;;36.15;11.07;;;;;;;;;;5009087;28;20072;-65
2022/01/11 05:46:02;;;;;;;30.50;11.20;;;;;;;;;;5009366;28;20058;-66
2022/01/11 05:48:27;;;;;;;14.05;5.25;;;;;;;;;;5008886;28;20160;-65
2022/01/11 05:50:52;;;;;;;46.20;15.30;;;;;;;;;;5009145;28;20025;-65
2022/01/11 05:53:17;;;;;;;27.38;12.10;;;;;;;;;;5007101;28;20033;-65
2022/01/11 05:55:43;;;;;;;45.65;14.88;;;;;;;;;;5010142;28;20030;-65
2022/01/11 05:58:08;;;;;;;54.28;16.85;;;;;;;;;;5010178;28;20024;-65
2022/01/11 06:00:33;;;;;;;26.23;9.05;;;;;;;;;;5009866;28;20018;-66
2022/01/11 06:02:58;;;;;;;29.70;10.63;;;;;;;;;;5009382;28;20030;-66
2022/01/11 06:05:24;;;;;;;28.35;8.52;;;;;;;;;;5010746;28;20073;-67
2022/01/11 06:07:49;;;;;;;36.53;12.63;;;;;;;;;;5010156;28;20116;-66
2022/01/11 06:10:14;;;;;;;15.90;5.97;;;;;;;;;;5011277;28;20044;-65
2022/01/11 06:12:41;;;;;;;31.35;11.05;;;;;;;;;;5010295;28;20017;-68
2022/01/11 06:15:06;;;;;;;24.40;8.93;;;;;;;;;;5008404;28;20022;-67
2022/01/11 06:17:32;;;;;;;23.85;9.35;;;;;;;;;;5010944;28;20033;-68
2022/01/11 06:19:57;;;;;;;20.60;5.75;;;;;;;;;;5010155;28;20104;-67
2022/01/11 06:22:24;;;;;;;54.55;15.32;;;;;;;;;;5010132;28;20503;-66
2022/01/11 06:24:49;;;;;;;10.48;5.15;;;;;;;;;;5012787;28;20024;-66
2022/01/11 06:27:14;;;;;;;24.98;10.70;;;;;;;;;;5017405;28;20025;-67
2022/01/11 06:29:39;;;;;;;40.85;13.25;;;;;;;;;;5010275;28;20119;-66
2022/01/11 06:32:05;;;;;;;11.05;5.38;;;;;;;;;;5010142;28;20492;-67
2022/01/11 06:34:30;;;;;;;26.85;9.55;;;;;;;;;;5010266;28;20454;-66
2022/01/11 06:36:56;;;;;;;22.45;10.38;;;;;;;;;;5009230;28;20509;-67
2022/01/11 06:39:21;;;;;;;18.42;7.47;;;;;;;;;;5008205;28;20034;-67
2022/01/11 06:41:46;;;;;;;31.65;10.38;;;;;;;;;;5008937;28;20033;-67
2022/01/11 06:44:12;;;;;;;47.50;14.50;;;;;;;;;;5008251;28;20100;-66
2022/01/11 06:46:37;;;;;;;43.35;14.15;;;;;;;;;;5007584;28;20057;-66
2022/01/11 06:49:04;;;;;;;22.90;8.18;;;;;;;;;;5007703;28;20642;-67
2022/01/11 06:51:29;;;;;;;24.40;9.25;;;;;;;;;;5007400;28;20028;-66
2022/01/11 06:53:54;;;;;;;57.85;17.33;;;;;;;;;;5007254;28;20022;-66
2022/01/11 06:56:21;;;;;;;56.40;17.45;;;;;;;;;;5006111;28;20071;-66
2022/01/11 06:58:46;;;;;;;17.92;6.28;;;;;;;;;;5007195;28;20075;-67
2022/01/11 07:01:11;;;;;;;46.58;15.10;;;;;;;;;;5007043;28;20036;-67
2022/01/11 07:03:37;;;;;;;31.25;9.75;;;;;;;;;;5009567;28;20428;-66
2022/01/11 07:06:02;;;;;;;25.70;8.48;;;;;;;;;;5009403;28;20144;-66
2022/01/11 07:08:28;;;;;;;19.65;8.10;;;;;;;;;;5010019;28;20133;-66
2022/01/11 07:10:54;;;;;;;32.80;11.80;;;;;;;;;;5008988;28;20032;-66
2022/01/11 07:13:19;;;;;;;46.75;14.10;;;;;;;;;;5010476;28;20021;-67
2022/01/11 07:15:44;;;;;;;38.15;11.65;;;;;;;;;;5009405;28;20105;-65
2022/01/11 07:18:10;;;;;;;27.40;11.43;;;;;;;;;;5009033;28;20037;-65
2022/01/11 07:20:37;;;;;;;38.08;15.43;;;;;;;;;;5009572;28;20025;-65
2022/01/11 07:23:03;;;;;;;28.67;10.52;;;;;;;;;;5008916;28;20462;-65
2022/01/11 07:25:30;;;;;;;26.67;10.05;;;;;;;;;;5008518;28;20062;-65
2022/01/11 07:27:56;;;;;;;27.30;10.50;;;;;;;;;;5007466;28;20029;-66
2022/01/11 07:30:21;;;;;;;32.92;12.25;;;;;;;;;;5008995;28;20029;-67
2022/01/11 07:32:46;;;;;;;35.47;14.35;;;;;;;;;;5009901;28;20076;-66
2022/01/11 07:35:11;;;;;;;29.00;13.25;;;;;;;;;;5009319;28;20723;-66
2022/01/11 07:37:36;;;;;;;34.72;11.82;;;;;;;;;;5012778;28;20390;-65
2022/01/11 07:40:02;;;;;;;21.70;8.20;;;;;;;;;;5012518;28;20038;-65
2022/01/11 07:42:28;;;;;;;23.15;7.03;;;;;;;;;;5011924;28;20029;-66
2022/01/11 07:44:54;;;;;;;17.35;7.50;;;;;;;;;;5012802;28;20025;-65
2022/01/11 07:47:20;;;;;;;28.17;8.30;;;;;;;;;;5013375;28;20021;-65
2022/01/11 07:49:47;;;;;;;23.77;9.40;;;;;;;;;;5011404;28;20038;-65
2022/01/11 07:52:12;;;;;;;33.17;11.23;;;;;;;;;;5013910;28;20018;-66
2022/01/11 07:54:37;;;;;;;22.30;8.38;;;;;;;;;;5011317;28;20036;-65
2022/01/11 07:57:02;;;;;;;24.48;9.85;;;;;;;;;;5012695;28;20030;-65
2022/01/11 07:59:28;;;;;;;18.88;7.65;;;;;;;;;;5011759;28;20048;-65
2022/01/11 08:01:53;;;;;;;21.85;9.82;;;;;;;;;;5012464;28;20105;-65
2022/01/11 08:04:18;;;;;;;25.38;11.10;;;;;;;;;;5018661;28;20137;-65
2022/01/11 08:06:43;;;;;;;32.92;12.20;;;;;;;;;;5012297;28;20489;-66
2022/01/11 08:09:10;;;;;;;42.08;13.25;;;;;;;;;;5019192;28;20029;-65
2022/01/11 08:11:35;;;;;;;21.77;8.93;;;;;;;;;;5012705;28;20018;-66
2022/01/11 08:14:00;;;;;;;25.50;12.85;;;;;;;;;;5012768;28;20474;-65
2022/01/11 08:16:26;;;;;;;24.77;7.82;;;;;;;;;;5011577;28;20687;-66
2022/01/11 08:18:51;;;;;;;27.92;11.05;;;;;;;;;;5011676;28;20104;-66
2022/01/11 08:21:17;;;;;;;25.63;9.27;;;;;;;;;;5012599;28;20018;-65
2022/01/11 08:23:42;;;;;;;21.42;8.38;;;;;;;;;;5013064;28;20026;-65
2022/01/11 08:26:07;;;;;;;21.38;9.20;;;;;;;;;;5012899;28;20371;-65
2022/01/11 08:28:32;;;;;;;16.58;8.20;;;;;;;;;;5012749;28;20061;-66
2022/01/11 08:30:58;;;;;;;24.20;9.95;;;;;;;;;;5011839;28;20025;-66
2022/01/11 08:33:24;;;;;;;20.98;7.60;;;;;;;;;;5012189;28;20033;-66
2022/01/11 08:35:49;;;;;;;16.67;6.90;;;;;;;;;;5013453;28;20025;-66
2022/01/11 08:38:14;;;;;;;26.08;11.07;;;;;;;;;;5013374;28;20026;-65
2022/01/11 08:40:40;;;;;;;16.20;5.88;;;;;;;;;;5012595;28;20373;-64
2022/01/11 08:43:05;;;;;;;20.60;7.75;;;;;;;;;;5013231;28;20221;-65
2022/01/11 08:45:31;;;;;;;27.30;9.35;;;;;;;;;;5012131;28;20439;-66
2022/01/11 08:47:56;;;;;;;17.70;7.13;;;;;;;;;;5012565;28;20068;-66
2022/01/11 08:50:22;;;;;;;23.08;9.73;;;;;;;;;;5012127;28;20026;-65
2022/01/11 08:52:47;;;;;;;16.05;7.25;;;;;;;;;;5012594;28;20018;-64
2022/01/11 08:55:13;;;;;;;16.15;7.50;;;;;;;;;;5012220;28;20521;-65
2022/01/11 08:57:39;;;;;;;22.90;8.63;;;;;;;;;;5012353;28;20029;-65
2022/01/11 09:00:08;;;;;;;20.48;8.55;;;;;;;;;;5012113;28;20030;-65
2022/01/11 09:02:35;;;;;;;25.95;11.00;;;;;;;;;;5011142;28;20030;-65
2022/01/11 09:05:00;;;;;;;21.23;8.25;;;;;;;;;;5011659;28;20053;-64
2022/01/11 09:07:25;;;;;;;21.67;8.85;;;;;;;;;;5012162;28;20030;-65
2022/01/11 09:09:51;;;;;;;22.00;10.13;;;;;;;;;;5011916;28;20042;-65
2022/01/11 09:12:18;;;;;;;18.58;6.85;;;;;;;;;;5012028;28;20018;-65
2022/01/11 09:14:44;;;;;;;16.95;6.22;;;;;;;;;;5091517;23;20014;-66
2022/01/11 09:17:09;;;;;;;10.07;5.05;;;;;;;;;;5031684;28;20032;-67
2022/01/11 09:19:34;;;;;;;18.92;8.98;;;;;;;;;;5031531;28;20029;-67
2022/01/11 09:22:00;;;;;;;19.55;9.73;;;;;;;;;;5032011;28;20029;-69
2022/01/11 09:24:29;;;;;;;18.55;9.57;;;;;;;;;;5031421;28;20025;-69
2022/01/11 09:26:55;;;;;;;12.98;6.47;;;;;;;;;;5009285;28;20028;-69
2022/01/11 09:29:21;;;;;;;23.15;8.63;;;;;;;;;;5010677;28;20068;-70
2022/01/11 09:31:46;;;;;;;15.50;6.47;;;;;;;;;;5011427;28;20427;-70
2022/01/11 09:34:11;;;;;;;14.55;7.30;;;;;;;;;;5010881;28;20029;-67
2022/01/11 09:36:37;;;;;;;12.88;4.72;;;;;;;;;;5011495;28;20029;-67
2022/01/11 09:39:03;;;;;;;18.27;8.60;;;;;;;;;;5010830;28;20289;-67
2022/01/11 09:41:28;;;;;;;11.75;6.13;;;;;;;;;;4994058;28;20422;-69
2022/01/11 09:43:53;;;;;;;17.88;7.05;;;;;;;;;;5011748;28;20116;-67
2022/01/11 09:46:19;;;;;;;23.40;10.48;;;;;;;;;;5010804;28;20083;-67
2022/01/11 09:48:45;;;;;;;16.63;6.55;;;;;;;;;;5011461;28;20625;-70
2022/01/11 09:51:10;;;;;;;23.48;10.32;;;;;;;;;;5011064;28;20033;-67
2022/01/11 09:53:35;;;;;;;16.95;8.80;;;;;;;;;;5011372;28;20014;-67
2022/01/11 09:56:03;;;;;;;21.58;8.90;;;;;;;;;;5011243;28;20040;-67
2022/01/11 09:58:28;;;;;;;20.25;9.30;;;;;;;;;;5011335;28;20033;-67
2022/01/11 10:00:53;;;;;;;13.70;8.20;;;;;;;;;;5010885;28;20030;-67
2022/01/11 10:03:19;;;;;;;22.08;10.18;;;;;;;;;;5011142;28;20749;-68
2022/01/11 10:05:44;;;;;;;21.80;9.90;;;;;;;;;;5010817;28;20127;-69
2022/01/11 10:08:18;;;;;;;23.42;10.20;;;;;;;;;;5007847;28;20297;-69
2022/01/11 10:10:44;;;;;;;16.23;7.28;;;;;;;;;;4998494;28;20010;-67
2022/01/11 10:13:26;;;;;;;17.90;9.63;;;;;;;;;;5011350;28;20493;-67
2022/01/11 10:15:51;;;;;;;22.33;10.43;;;;;;;;;;5008590;28;20517;-67
2022/01/11 10:18:32;;;;;;;17.17;7.20;;;;;;;;;;5010473;28;20037;-66
2022/01/11 10:20:57;;;;;;;24.65;9.57;;;;;;;;;;5011065;28;20256;-66
2022/01/11 10:23:31;;;;;;;18.77;10.33;;;;;;;;;;5011009;28;20037;-66
2022/01/11 10:25:56;;;;;;;19.33;9.05;;;;;;;;;;5009961;28;20307;-66
2022/01/11 10:28:32;;;;;;;21.63;10.52;;;;;;;;;;5010232;28;20026;-66
2022/01/11 10:30:57;;;;;;;19.42;10.90;;;;;;;;;;5010442;28;20108;-69
2022/01/11 10:33:22;;;;;;;20.53;10.17;;;;;;;;;;5011197;28;20109;-69
2022/01/11 10:35:48;;;;;;;23.43;10.53;;;;;;;;;;5010893;28;20599;-68
2022/01/11 10:38:22;;;;;;;21.00;10.68;;;;;;;;;;5010331;28;20303;-66
2022/01/11 10:40:48;;;;;;;20.60;9.93;;;;;;;;;;4998746;28;20029;-66
2022/01/11 10:43:14;;;;;;;18.60;8.55;;;;;;;;;;5011357;28;20022;-66
2022/01/11 10:45:44;;;;;;;21.15;10.05;;;;;;;;;;5010105;28;20034;-68
2022/01/11 10:48:09;;;;;;;23.52;9.82;;;;;;;;;;5010296;28;20087;-68
2022/01/11 10:50:37;;;;;;;24.02;9.48;;;;;;;;;;5010700;28;20117;-69
2022/01/11 10:53:04;;;;;;;21.13;9.23;;;;;;;;;;5009215;28;20026;-69
2022/01/11 10:55:30;;;;;;;25.33;11.20;;;;;;;;;;5009999;28;20018;-69
2022/01/11 10:57:57;;;;;;;20.17;10.48;;;;;;;;;;5009728;28;20018;-69
2022/01/11 11:00:34;;;;;;;22.63;11.20;;;;;;;;;;5010672;28;20557;-69
2022/01/11 11:03:00;;;;;;;17.63;7.03;;;;;;;;;;5007969;28;20018;-69
2022/01/11 11:05:31;;;;;;;16.42;7.45;;;;;;;;;;5009532;28;20084;-69
2022/01/11 11:08:03;;;;;;;21.23;10.15;;;;;;;;;;5009238;28;20080;-69
2022/01/11 11:10:31;;;;;;;13.52;6.47;;;;;;;;;;5006871;28;20109;-69
2022/01/11 11:12:57;;;;;;;22.25;9.23;;;;;;;;;;5009766;28;20547;-69
2022/01/11 11:15:29;;;;;;;13.82;6.82;;;;;;;;;;5009795;28;20025;-69
2022/01/11 11:17:54;;;;;;;20.58;8.23;;;;;;;;;;4995362;28;20021;-69
2022/01/11 11:20:20;;;;;;;16.20;6.03;;;;;;;;;;5010456;28;20378;-69
2022/01/11 11:22:45;;;;;;;25.20;10.18;;;;;;;;;;5010208;28;20323;-69
2022/01/11 11:25:10;;;;;;;15.95;8.13;;;;;;;;;;5009276;28;20028;-69
2022/01/11 11:27:35;;;;;;;19.88;6.82;;;;;;;;;;5009750;28;20474;-69
2022/01/11 11:30:01;;;;;;;20.17;9.77;;;;;;;;;;5009816;28;20021;-69
2022/01/11 11:32:27;;;;;;;19.67;9.75;;;;;;;;;;5010116;28;20182;-69
2022/01/11 11:34:52;;;;;;;21.10;10.35;;;;;;;;;;5010016;28;20018;-69
2022/01/11 11:37:27;;;;;;;16.20;8.32;;;;;;;;;;5009535;28;20397;-69
2022/01/11 11:40:03;;;;;;;16.38;9.43;;;;;;;;;;5010487;28;20068;-69
2022/01/11 11:42:29;;;;;;;22.95;12.20;;;;;;;;;;5009208;28;20080;-69
2022/01/11 11:44:56;;;;;;;20.98;9.55;;;;;;;;;;5009920;28;20026;-69
2022/01/11 11:47:31;;;;;;;18.08;9.57;;;;;;;;;;5008647;28;20030;-69
2022/01/11 11:49:58;;;;;;;21.95;8.55;;;;;;;;;;5008469;28;20026;-69
2022/01/11 11:52:34;;;;;;;19.92;9.65;;;;;;;;;;5009782;28;20030;-69
2022/01/11 11:55:02;;;;;;;17.60;8.55;;;;;;;;;;5008870;28;20018;-69
2022/01/11 11:57:31;;;;;;;23.63;9.75;;;;;;;;;;5009596;28;20097;-69
2022/01/11 11:59:59;;;;;;;20.23;9.67;;;;;;;;;;5008028;28;20022;-69
2022/01/11 12:02:35;;;;;;;19.20;9.32;;;;;;;;;;5005532;28;20256;-69
2022/01/11 12:05:03;;;;;;;20.98;7.95;;;;;;;;;;5009639;28;20075;-69
2022/01/11 12:07:31;;;;;;;20.95;9.48;;;;;;;;;;5009048;28;20028;-69
2022/01/11 12:09:56;;;;;;;20.38;8.88;;;;;;;;;;5009838;28;20057;-69
2022/01/11 12:12:38;;;;;;;22.50;9.10;;;;;;;;;;5009744;28;20075;-69
2022/01/11 12:15:21;;;;;;;20.45;9.73;;;;;;;;;;5008310;28;20010;-69
2022/01/11 12:17:46;;;;;;;18.52;7.63;;;;;;;;;;5004531;28;20054;-69
2022/01/11 12:20:11;;;;;;;24.60;9.80;;;;;;;;;;5009234;28;20080;-69
2022/01/11 12:22:49;;;;;;;17.33;8.13;;;;;;;;;;5009220;28;20390;-69
2022/01/11 12:25:28;;;;;;;22.92;9.32;;;;;;;;;;5003814;28;20347;-69
2022/01/11 12:28:04;;;;;;;21.58;8.77;;;;;;;;;;5012367;28;20026;-69
2022/01/11 12:30:31;;;;;;;14.45;3.15;;;;;;;;;;5012996;28;20025;-70
2022/01/11 12:33:09;;;;;;;21.63;10.50;;;;;;;;;;5012260;28;20079;-69
2022/01/11 12:35:49;;;;;;;22.13;9.70;;;;;;;;;;5013121;28;20070;-69
2022/01/11 12:38:14;;;;;;;18.85;9.30;;;;;;;;;;5011417;28;20030;-68
2022/01/11 12:40:40;;;;;;;14.37;6.80;;;;;;;;;;5012236;28;20018;-69
2022/01/11 12:43:16;;;;;;;9.95;4.75;;;;;;;;;;5012646;28;20268;-68
2022/01/11 12:46:00;;;;;;;16.15;7.25;;;;;;;;;;5011929;28;20021;-69
2022/01/11 12:48:44;;;;;;;20.73;8.73;;;;;;;;;;5013160;28;20029;-68
2022/01/11 12:51:10;;;;;;;23.80;7.75;;;;;;;;;;5007869;28;20014;-69
2022/01/11 12:53:35;;;;;;;23.92;8.40;;;;;;;;;;5012595;28;20068;-69
2022/01/11 12:56:00;;;;;;;11.50;5.03;;;;;;;;;;5012370;28;20088;-69
2022/01/11 12:58:26;;;;;;;10.48;5.93;;;;;;;;;;5012818;28;20029;-68
2022/01/11 13:00:52;;;;;;;20.23;7.93;;;;;;;;;;5011512;28;20021;-69
2022/01/11 13:03:17;;;;;;;18.58;7.57;;;;;;;;;;5012447;28;20478;-69
2022/01/11 13:05:43;;;;;;;21.97;8.63;;;;;;;;;;5012376;28;20405;-69
2022/01/11 13:08:09;;;;;;;21.00;6.85;;;;;;;;;;5012199;28;20276;-69
2022/01/11 13:10:34;;;;;;;25.38;7.43;;;;;;;;;;5011069;28;20018;-69
2022/01/11 13:13:08;;;;;;;19.83;7.50;;;;;;;;;;5012220;28;20058;-69
2022/01/11 13:15:38;;;;;;;13.18;5.85;;;;;;;;;;5020694;28;20385;-69
2022/01/11 13:18:19;;;;;;;21.45;8.25;;;;;;;;;;5012194;28;20041;-69
2022/01/11 13:20:46;;;;;;;22.40;8.10;;;;;;;;;;5014524;28;20030;-69
2022/01/11 13:23:21;;;;;;;18.90;8.40;;;;;;;;;;5011078;28;20010;-69
2022/01/11 13:25:48;;;;;;;16.90;7.55;;;;;;;;;;5011862;28;20045;-69
2022/01/11 13:28:13;;;;;;;25.10;8.18;;;;;;;;;;5012330;28;20068;-69
2022/01/11 13:30:40;;;;;;;23.17;9.05;;;;;;;;;;5011581;28;20041;-69
2022/01/11 13:33:06;;;;;;;13.57;6.85;;;;;;;;;;5011531;28;20045;-69
2022/01/11 13:35:31;;;;;;;19.58;8.43;;;;;;;;;;5010513;28;20476;-69
2022/01/11 13:37:57;;;;;;;10.20;4.85;;;;;;;;;;5012309;28;20026;-69
2022/01/11 13:40:26;;;;;;;22.70;7.20;;;;;;;;;;5011500;28;20065;-69
2022/01/11 13:43:01;;;;;;;18.98;8.75;;;;;;;;;;5011047;28;20029;-69
2022/01/11 13:45:33;;;;;;;15.48;7.32;;;;;;;;;;5010577;28;20041;-69
2022/01/11 13:48:06;;;;;;;20.52;7.95;;;;;;;;;;5011300;28;20030;-69
2022/01/11 13:50:32;;;;;;;21.02;7.35;;;;;;;;;;5009970;28;20040;-69
2022/01/11 13:52:57;;;;;;;16.03;7.77;;;;;;;;;;5010942;28;20030;-69
2022/01/11 13:55:22;;;;;;;22.20;7.88;;;;;;;;;;5009758;28;20265;-69
2022/01/11 13:57:47;;;;;;;13.77;5.70;;;;;;;;;;5011457;28;20026;-69
2022/01/11 14:00:15;;;;;;;20.63;5.55;;;;;;;;;;5010533;28;20037;-69
2022/01/11 14:02:42;;;;;;;12.68;5.78;;;;;;;;;;5011231;28;20032;-69
2022/01/11 14:05:09;;;;;;;14.23;7.40;;;;;;;;;;5011114;28;20367;-69
2022/01/11 14:07:34;;;;;;;14.05;6.15;;;;;;;;;;5011018;28;20105;-69
2022/01/11 14:10:03;;;;;;;15.68;6.15;;;;;;;;;;5010752;28;20097;-69
2022/01/11 14:12:30;;;;;;;11.88;6.75;;;;;;;;;;5011188;28;20434;-69
2022/01/11 14:14:57;;;;;;;11.90;4.68;;;;;;;;;;5010660;28;20494;-69
2022/01/11 14:17:24;;;;;;;19.58;6.90;;;;;;;;;;5010532;28;20060;-69
2022/01/11 14:19:50;;;;;;;12.02;5.72;;;;;;;;;;5009471;28;20033;-69
2022/01/11 14:22:17;;;;;;;15.18;7.13;;;;;;;;;;5011032;28;20469;-69
2022/01/11 14:24:51;;;;;;;21.90;6.50;;;;;;;;;;5011531;28;20383;-69
2022/01/11 14:27:17;;;;;;;21.30;5.57;;;;;;;;;;5009655;28;20049;-69
2022/01/11 14:29:52;;;;;;;17.80;7.50;;;;;;;;;;5010620;28;20061;-69